Time;durP1;ratioP1;P1;durP2;ratioP2;P2;SDS_P1;SDS_P2;PMS_P1;PMS_P2;Temp;Humidity;BMP_temperature;BMP_pressure;BME280_temperature;BME280_humidity;BME280_pressure;Samples;Min_cycle;Max_cycle;Signal;HPM_P1;HPM_P2
2020/12/07 00:01:04;;;;;;;19.53;12.87;;;;;;;;;;4453880;32;20254;-66
2020/12/07 00:03:30;;;;;;;18.60;13.23;;;;;;;;;;4453022;32;20243;-66
2020/12/07 00:05:55;;;;;;;23.33;17.43;;;;;;;;;;4460581;32;20225;-66
2020/12/07 00:08:20;;;;;;;16.00;11.07;;;;;;;;;;4461380;32;20985;-66
2020/12/07 00:10:46;;;;;;;14.57;10.93;;;;;;;;;;4460356;32;20273;-67
2020/12/07 00:13:11;;;;;;;20.23;12.10;;;;;;;;;;4450878;32;20339;-66
2020/12/07 00:15:37;;;;;;;24.20;13.17;;;;;;;;;;4461302;32;20296;-66
2020/12/07 00:18:02;;;;;;;18.60;11.90;;;;;;;;;;4460261;32;20756;-67
2020/12/07 00:20:28;;;;;;;23.57;14.87;;;;;;;;;;4461671;32;20307;-66
2020/12/07 00:22:56;;;;;;;26.30;14.27;;;;;;;;;;4462490;32;20275;-66
2020/12/07 00:25:21;;;;;;;24.50;12.57;;;;;;;;;;4457053;32;20783;-66
2020/12/07 00:27:47;;;;;;;28.43;13.10;;;;;;;;;;4447699;32;20254;-65
2020/12/07 00:30:12;;;;;;;18.83;13.80;;;;;;;;;;4459275;32;20323;-66
2020/12/07 00:32:38;;;;;;;24.40;13.30;;;;;;;;;;4446525;32;20546;-66
2020/12/07 00:35:04;;;;;;;30.70;15.03;;;;;;;;;;4460683;32;20604;-65
2020/12/07 00:37:29;;;;;;;20.30;13.97;;;;;;;;;;4462249;32;20240;-66
2020/12/07 00:39:55;;;;;;;20.03;12.93;;;;;;;;;;4462210;32;20697;-66
2020/12/07 00:42:20;;;;;;;23.67;13.87;;;;;;;;;;4450535;32;20761;-65
2020/12/07 00:44:46;;;;;;;17.57;12.07;;;;;;;;;;4464113;32;20637;-63
2020/12/07 00:47:11;;;;;;;16.60;11.30;;;;;;;;;;4463856;32;20276;-62
2020/12/07 00:49:38;;;;;;;17.07;11.33;;;;;;;;;;4461559;32;20266;-64
2020/12/07 00:52:04;;;;;;;15.43;10.67;;;;;;;;;;4463654;32;20246;-64
2020/12/07 00:54:30;;;;;;;19.67;10.80;;;;;;;;;;4463363;32;20248;-62
2020/12/07 00:56:56;;;;;;;15.87;10.90;;;;;;;;;;4463913;32;20280;-60
2020/12/07 00:59:22;;;;;;;19.10;11.67;;;;;;;;;;4452910;32;20621;-61
2020/12/07 01:01:48;;;;;;;17.60;12.47;;;;;;;;;;4454179;32;20279;-61
2020/12/07 01:04:14;;;;;;;24.00;12.07;;;;;;;;;;4464285;32;20302;-61
2020/12/07 01:06:40;;;;;;;17.17;11.53;;;;;;;;;;4464657;32;20270;-61
2020/12/07 01:09:05;;;;;;;20.73;10.43;;;;;;;;;;4452040;32;20299;-61
2020/12/07 01:11:31;;;;;;;22.63;9.67;;;;;;;;;;4458262;32;20252;-62
2020/12/07 01:13:56;;;;;;;15.63;10.30;;;;;;;;;;4463802;32;20240;-61
2020/12/07 01:16:23;;;;;;;15.80;10.30;;;;;;;;;;4454425;32;20312;-61
2020/12/07 01:18:49;;;;;;;19.40;12.03;;;;;;;;;;4456952;32;20239;-61
2020/12/07 01:21:17;;;;;;;17.00;11.00;;;;;;;;;;4460891;32;20268;-61
2020/12/07 01:23:44;;;;;;;17.53;10.60;;;;;;;;;;4463154;32;20689;-61
2020/12/07 01:26:11;;;;;;;18.93;11.07;;;;;;;;;;4463249;32;20291;-61
2020/12/07 01:28:36;;;;;;;22.53;12.87;;;;;;;;;;4461317;32;20212;-61
2020/12/07 01:31:02;;;;;;;27.70;13.80;;;;;;;;;;4454638;32;20272;-63
2020/12/07 01:33:27;;;;;;;21.07;14.17;;;;;;;;;;4463613;32;20339;-63
2020/12/07 01:35:52;;;;;;;21.10;11.27;;;;;;;;;;4455903;32;20370;-69
2020/12/07 01:38:18;;;;;;;18.03;10.20;;;;;;;;;;4461649;32;20355;-70
2020/12/07 01:40:43;;;;;;;16.93;12.37;;;;;;;;;;4459863;32;20232;-70
2020/12/07 01:43:09;;;;;;;18.17;11.10;;;;;;;;;;4462115;32;20238;-71
2020/12/07 01:45:34;;;;;;;14.53;9.97;;;;;;;;;;4464668;32;20258;-66
2020/12/07 01:48:00;;;;;;;15.13;10.30;;;;;;;;;;4463341;32;20269;-68
2020/12/07 01:50:26;;;;;;;17.17;11.23;;;;;;;;;;4459773;32;20274;-66
2020/12/07 01:52:52;;;;;;;22.03;11.10;;;;;;;;;;4450180;32;20200;-65
2020/12/07 01:55:18;;;;;;;14.23;10.40;;;;;;;;;;4461171;32;20228;-67
2020/12/07 01:57:44;;;;;;;14.03;8.57;;;;;;;;;;4449129;32;20208;-69
2020/12/07 02:00:09;;;;;;;11.87;9.17;;;;;;;;;;4463870;32;20228;-68
2020/12/07 02:02:35;;;;;;;18.63;10.63;;;;;;;;;;4462795;32;20534;-68
2020/12/07 02:05:00;;;;;;;19.80;11.10;;;;;;;;;;4462584;32;20549;-67
2020/12/07 02:07:25;;;;;;;13.50;9.53;;;;;;;;;;4447763;32;20208;-69
2020/12/07 02:09:51;;;;;;;12.30;9.30;;;;;;;;;;4462954;32;20295;-70
2020/12/07 02:12:16;;;;;;;15.07;9.57;;;;;;;;;;4462294;32;20279;-71
2020/12/07 02:14:42;;;;;;;20.10;11.73;;;;;;;;;;4463704;32;20247;-70
2020/12/07 02:17:08;;;;;;;18.57;10.50;;;;;;;;;;4463601;32;20216;-68
2020/12/07 02:19:33;;;;;;;21.47;10.33;;;;;;;;;;4460708;32;20861;-68
2020/12/07 02:21:59;;;;;;;17.23;9.93;;;;;;;;;;4448572;32;20733;-67
2020/12/07 02:24:24;;;;;;;17.37;10.33;;;;;;;;;;4460613;32;20221;-67
2020/12/07 02:26:50;;;;;;;15.67;9.80;;;;;;;;;;4463373;32;20240;-67
2020/12/07 02:29:15;;;;;;;14.47;9.13;;;;;;;;;;4463520;32;20255;-66
2020/12/07 02:31:41;;;;;;;15.50;9.27;;;;;;;;;;4451496;32;20212;-67
2020/12/07 02:34:06;;;;;;;15.70;9.90;;;;;;;;;;4458496;32;20579;-67
2020/12/07 02:36:32;;;;;;;14.23;9.63;;;;;;;;;;4452662;32;20389;-67
2020/12/07 02:38:57;;;;;;;14.33;9.97;;;;;;;;;;4456654;32;20726;-64
2020/12/07 02:41:23;;;;;;;18.03;11.03;;;;;;;;;;4462806;32;20321;-65
2020/12/07 02:43:48;;;;;;;18.13;11.40;;;;;;;;;;4463524;32;20239;-63
2020/12/07 02:46:14;;;;;;;21.97;11.60;;;;;;;;;;4463631;32;20258;-62
2020/12/07 02:48:39;;;;;;;17.50;11.13;;;;;;;;;;4463276;32;20307;-65
2020/12/07 02:51:05;;;;;;;15.73;9.90;;;;;;;;;;4463594;32;20662;-65
2020/12/07 02:53:30;;;;;;;15.63;9.93;;;;;;;;;;4463584;32;20286;-66
2020/12/07 02:55:56;;;;;;;15.87;10.33;;;;;;;;;;4456290;32;20228;-66
2020/12/07 02:58:21;;;;;;;14.63;8.50;;;;;;;;;;4453843;32;20250;-67
2020/12/07 03:00:47;;;;;;;14.27;9.97;;;;;;;;;;4457071;32;20307;-67
2020/12/07 03:03:12;;;;;;;11.80;9.03;;;;;;;;;;4451471;32;20806;-66
2020/12/07 03:05:38;;;;;;;24.60;10.53;;;;;;;;;;4463298;32;20308;-66
2020/12/07 03:08:03;;;;;;;14.23;9.93;;;;;;;;;;4462678;32;20240;-65
2020/12/07 03:10:28;;;;;;;14.43;9.63;;;;;;;;;;4459232;32;20220;-67
2020/12/07 03:12:54;;;;;;;14.47;9.67;;;;;;;;;;4462619;32;20292;-67
2020/12/07 03:15:19;;;;;;;18.40;10.87;;;;;;;;;;4458240;32;20310;-66
2020/12/07 03:17:45;;;;;;;15.47;10.37;;;;;;;;;;4455129;32;20254;-67
2020/12/07 03:20:10;;;;;;;16.33;10.27;;;;;;;;;;4463061;32;20239;-69
2020/12/07 03:22:36;;;;;;;16.73;9.47;;;;;;;;;;4462903;32;20687;-70
2020/12/07 03:25:01;;;;;;;20.07;11.43;;;;;;;;;;4461012;32;20270;-71
2020/12/07 03:27:27;;;;;;;17.83;11.37;;;;;;;;;;4461901;32;20216;-72
2020/12/07 03:29:52;;;;;;;22.80;11.40;;;;;;;;;;4463350;32;20291;-74
2020/12/07 03:32:18;;;;;;;13.17;9.93;;;;;;;;;;4463265;32;20220;-73
2020/12/07 03:34:43;;;;;;;16.57;9.90;;;;;;;;;;4452974;32;20769;-73
2020/12/07 03:37:08;;;;;;;14.10;9.10;;;;;;;;;;4456477;32;20254;-76
2020/12/07 03:39:34;;;;;;;22.27;9.67;;;;;;;;;;4463143;32;20339;-74
2020/12/07 03:41:59;;;;;;;16.67;10.03;;;;;;;;;;4462875;32;20212;-64
2020/12/07 03:44:25;;;;;;;19.47;9.53;;;;;;;;;;4462383;32;20244;-63
2020/12/07 03:46:50;;;;;;;13.73;9.10;;;;;;;;;;4448828;32;20209;-64
2020/12/07 03:49:16;;;;;;;12.80;8.80;;;;;;;;;;4458812;32;20260;-64
2020/12/07 03:51:41;;;;;;;19.13;10.13;;;;;;;;;;4461711;32;20240;-64
2020/12/07 03:54:06;;;;;;;17.57;9.63;;;;;;;;;;4462684;32;20732;-65
2020/12/07 03:56:32;;;;;;;17.73;8.53;;;;;;;;;;4460981;32;20294;-66
2020/12/07 03:58:57;;;;;;;18.50;11.03;;;;;;;;;;4462926;32;20589;-67
2020/12/07 04:01:23;;;;;;;18.00;9.33;;;;;;;;;;4453073;32;20339;-68
2020/12/07 04:03:52;;;;;;;14.57;9.47;;;;;;;;;;4455281;32;20231;-67
2020/12/07 04:08:43;;;;;;;13.43;8.07;;;;;;;;;;4462763;32;20314;-68
2020/12/07 04:11:09;;;;;;;18.30;9.20;;;;;;;;;;4462485;32;20220;-69
2020/12/07 04:13:34;;;;;;;17.13;9.37;;;;;;;;;;4462772;32;20287;-68
2020/12/07 04:16:02;;;;;;;25.17;10.67;;;;;;;;;;4457106;32;20259;-68
2020/12/07 04:18:27;;;;;;;17.90;8.93;;;;;;;;;;4457762;32;20258;-69
2020/12/07 04:20:53;;;;;;;20.17;10.03;;;;;;;;;;4465910;32;20299;-68
2020/12/07 04:23:18;;;;;;;11.13;8.10;;;;;;;;;;4465776;32;20335;-67
2020/12/07 04:25:44;;;;;;;12.47;8.83;;;;;;;;;;4465253;32;20361;-67
2020/12/07 04:28:09;;;;;;;12.80;8.93;;;;;;;;;;4465550;32;20376;-69
2020/12/07 04:30:39;;;;;;;13.27;8.20;;;;;;;;;;4461150;32;20244;-67
2020/12/07 04:33:04;;;;;;;13.87;8.87;;;;;;;;;;4452820;32;20323;-67
2020/12/07 04:35:30;;;;;;;17.20;9.03;;;;;;;;;;4461127;32;20319;-69
2020/12/07 04:37:55;;;;;;;17.77;8.87;;;;;;;;;;4452624;32;20216;-68
2020/12/07 04:40:20;;;;;;;14.83;8.30;;;;;;;;;;4462294;32;20246;-68
2020/12/07 04:42:46;;;;;;;13.30;8.33;;;;;;;;;;4454582;32;20297;-67
2020/12/07 04:45:12;;;;;;;17.90;11.27;;;;;;;;;;4463118;32;20212;-70
2020/12/07 04:47:39;;;;;;;14.53;9.60;;;;;;;;;;4450422;32;20600;-69
2020/12/07 04:50:06;;;;;;;15.20;8.90;;;;;;;;;;4465418;32;20262;-67
2020/12/07 04:52:33;;;;;;;15.10;8.10;;;;;;;;;;4464588;32;20529;-69
2020/12/07 04:55:02;;;;;;;16.57;8.47;;;;;;;;;;4465382;32;20252;-72
2020/12/07 04:57:30;;;;;;;12.13;8.47;;;;;;;;;;4465185;32;20196;-69
2020/12/07 04:59:57;;;;;;;11.37;8.93;;;;;;;;;;4451137;32;20233;-63
2020/12/07 05:02:23;;;;;;;15.93;9.67;;;;;;;;;;4460837;32;20644;-63
2020/12/07 05:04:48;;;;;;;16.73;10.27;;;;;;;;;;4465358;32;20355;-63
2020/12/07 05:07:14;;;;;;;14.00;9.23;;;;;;;;;;4464470;32;20228;-64
2020/12/07 05:09:41;;;;;;;21.10;9.23;;;;;;;;;;4465205;32;20541;-61
2020/12/07 05:12:22;;;;;;;15.10;9.83;;;;;;;;;;4464100;32;20274;-63
2020/12/07 05:14:48;;;;;;;11.87;8.57;;;;;;;;;;4462847;32;20712;-74
2020/12/07 05:17:16;;;;;;;20.27;8.57;;;;;;;;;;4450151;32;20296;-63
2020/12/07 05:19:45;;;;;;;13.00;8.13;;;;;;;;;;4465041;32;20251;-62
2020/12/07 05:22:15;;;;;;;15.50;9.83;;;;;;;;;;4449502;32;20240;-66
2020/12/07 05:24:41;;;;;;;13.57;9.27;;;;;;;;;;4463162;32;20307;-65
2020/12/07 05:27:10;;;;;;;13.23;9.70;;;;;;;;;;4449599;32;20725;-68
2020/12/07 05:30:01;;;;;;;13.53;8.27;;;;;;;;;;4457103;32;20232;-67
2020/12/07 05:32:37;;;;;;;17.87;10.97;;;;;;;;;;4462843;32;20280;-67
2020/12/07 05:35:05;;;;;;;18.43;11.77;;;;;;;;;;4464144;32;20577;-67
2020/12/07 05:37:34;;;;;;;27.10;13.03;;;;;;;;;;4461770;32;20268;-65
2020/12/07 05:40:04;;;;;;;37.20;18.33;;;;;;;;;;4456679;32;20743;-63
2020/12/07 05:42:30;;;;;;;19.80;14.60;;;;;;;;;;4464555;32;20255;-65
2020/12/07 05:44:57;;;;;;;15.63;11.17;;;;;;;;;;4463749;32;20283;-67
2020/12/07 05:47:24;;;;;;;16.50;9.43;;;;;;;;;;4461353;32;20360;-62
2020/12/07 05:49:51;;;;;;;17.37;9.10;;;;;;;;;;4463161;32;20224;-62
2020/12/07 05:52:38;;;;;;;19.97;8.27;;;;;;;;;;4464346;32;20299;-61
2020/12/07 05:55:03;;;;;;;15.90;10.33;;;;;;;;;;4448336;32;20355;-62
2020/12/07 05:57:31;;;;;;;22.73;10.80;;;;;;;;;;4449421;32;20290;-68
2020/12/07 06:00:04;;;;;;;19.37;13.27;;;;;;;;;;4456456;32;20288;-65
2020/12/07 06:02:30;;;;;;;19.93;12.73;;;;;;;;;;4448431;32;20208;-64
2020/12/07 06:04:57;;;;;;;21.90;10.33;;;;;;;;;;4463514;32;20254;-65
2020/12/07 06:07:27;;;;;;;22.17;9.97;;;;;;;;;;4448632;32;20204;-65
2020/12/07 06:09:55;;;;;;;14.97;10.43;;;;;;;;;;4436913;32;20642;-60
2020/12/07 06:12:25;;;;;;;13.93;9.73;;;;;;;;;;4459196;32;20216;-57
2020/12/07 06:14:51;;;;;;;12.53;8.47;;;;;;;;;;4453573;32;20278;-58
2020/12/07 06:17:23;;;;;;;9.30;7.13;;;;;;;;;;4449516;32;20638;-57
2020/12/07 06:19:53;;;;;;;16.97;9.10;;;;;;;;;;4457309;32;20555;-59
2020/12/07 06:22:22;;;;;;;16.87;8.13;;;;;;;;;;4456446;32;20271;-61
2020/12/07 06:24:49;;;;;;;16.47;8.90;;;;;;;;;;4451176;32;20315;-62
2020/12/07 06:27:16;;;;;;;17.27;8.77;;;;;;;;;;4448449;32;20235;-62
2020/12/07 06:30:01;;;;;;;15.80;9.93;;;;;;;;;;4456178;32;20656;-57
2020/12/07 06:32:49;;;;;;;15.47;10.37;;;;;;;;;;4450050;32;20289;-59
2020/12/07 06:35:15;;;;;;;20.27;12.67;;;;;;;;;;4449174;32;20239;-59
2020/12/07 06:37:42;;;;;;;14.23;10.03;;;;;;;;;;4448555;32;20754;-59
2020/12/07 06:40:08;;;;;;;14.20;9.77;;;;;;;;;;4455058;32;20791;-57
2020/12/07 06:42:40;;;;;;;9.47;8.03;;;;;;;;;;4456066;32;20331;-60
2020/12/07 06:45:08;;;;;;;10.13;8.37;;;;;;;;;;4456338;32;20683;-57
2020/12/07 06:47:34;;;;;;;9.57;7.53;;;;;;;;;;4454307;32;20324;-57
2020/12/07 06:50:15;;;;;;;13.67;7.63;;;;;;;;;;4459280;32;20294;-56
2020/12/07 06:52:42;;;;;;;10.20;7.30;;;;;;;;;;4459360;32;20614;-58
2020/12/07 06:55:10;;;;;;;9.80;7.23;;;;;;;;;;4456762;32;20659;-59
2020/12/07 06:57:49;;;;;;;13.30;8.17;;;;;;;;;;4458874;32;20259;-57
2020/12/07 07:00:18;;;;;;;12.30;9.03;;;;;;;;;;4446913;32;20803;-58
2020/12/07 07:02:49;;;;;;;14.27;9.70;;;;;;;;;;4457694;32;20243;-57
2020/12/07 07:05:19;;;;;;;12.97;7.80;;;;;;;;;;4457924;32;20231;-58
2020/12/07 07:07:45;;;;;;;19.43;11.33;;;;;;;;;;4459187;32;20250;-68
2020/12/07 07:10:12;;;;;;;15.93;11.33;;;;;;;;;;4461062;32;20236;-68
2020/12/07 07:12:39;;;;;;;21.40;13.13;;;;;;;;;;4461521;32;20219;-69
2020/12/07 07:15:06;;;;;;;29.07;17.33;;;;;;;;;;4453008;32;20260;-59
2020/12/07 07:17:34;;;;;;;56.57;33.33;;;;;;;;;;4461134;32;20212;-58
2020/12/07 07:20:03;;;;;;;65.40;42.80;;;;;;;;;;4462804;32;20284;-58
2020/12/07 07:22:28;;;;;;;87.67;54.30;;;;;;;;;;4454589;32;20262;-57
2020/12/07 07:30:05;;;;;;;70.97;43.70;;;;;;;;;;4461798;32;20583;-58
2020/12/07 07:32:32;;;;;;;52.53;34.63;;;;;;;;;;4461196;32;20237;-58
2020/12/07 07:34:58;;;;;;;27.43;17.47;;;;;;;;;;4460207;32;20250;-58
2020/12/07 07:37:24;;;;;;;30.40;16.73;;;;;;;;;;4444459;32;20378;-58
2020/12/07 07:39:59;;;;;;;32.83;20.93;;;;;;;;;;4455755;32;20228;-58
2020/12/07 07:42:25;;;;;;;28.57;19.60;;;;;;;;;;4462708;32;20297;-58
2020/12/07 07:44:51;;;;;;;49.30;29.27;;;;;;;;;;4462486;32;20685;-58
2020/12/07 07:47:29;;;;;;;56.87;34.43;;;;;;;;;;4461701;32;20245;-57
2020/12/07 07:53:17;;;;;;;90.77;51.23;;;;;;;;;;4460358;32;20935;-58
2020/12/07 08:17:00;;;;;;;91.03;52.73;;;;;;;;;;4460810;32;20581;-58
2020/12/07 08:19:29;;;;;;;83.70;54.00;;;;;;;;;;4461478;32;20637;-58
2020/12/07 08:21:54;;;;;;;96.17;55.63;;;;;;;;;;4464120;32;20232;-58
2020/12/07 08:24:20;;;;;;;88.73;53.60;;;;;;;;;;4450001;32;20231;-58
2020/12/07 08:26:45;;;;;;;88.43;56.10;;;;;;;;;;4449575;32;20373;-58
2020/12/07 08:29:11;;;;;;;96.80;61.33;;;;;;;;;;4451983;32;20228;-58
2020/12/07 08:31:38;;;;;;;101.10;66.40;;;;;;;;;;4455518;32;20262;-58
2020/12/07 08:34:13;;;;;;;90.70;63.70;;;;;;;;;;4458332;32;20425;-58
2020/12/07 08:36:43;;;;;;;155.63;103.57;;;;;;;;;;4439645;32;20224;-58
2020/12/07 08:39:09;;;;;;;172.73;100.93;;;;;;;;;;4455424;32;20220;-58
2020/12/07 08:41:35;;;;;;;108.13;69.33;;;;;;;;;;4462588;32;20283;-58
2020/12/07 08:44:03;;;;;;;69.43;48.47;;;;;;;;;;4454916;32;20254;-58
2020/12/07 08:46:30;;;;;;;88.40;55.80;;;;;;;;;;4465338;32;20705;-58
2020/12/07 08:48:56;;;;;;;80.70;55.40;;;;;;;;;;4465082;32;20251;-59
2020/12/07 08:51:33;;;;;;;87.07;57.20;;;;;;;;;;4465616;32;20234;-59
2020/12/07 08:53:59;;;;;;;94.40;58.90;;;;;;;;;;4460509;32;20308;-59
2020/12/07 08:56:25;;;;;;;79.73;54.90;;;;;;;;;;4449790;32;20670;-59
2020/12/07 08:58:51;;;;;;;96.93;60.97;;;;;;;;;;4455223;32;20239;-59
2020/12/07 09:01:17;;;;;;;89.33;59.13;;;;;;;;;;4464579;32;20240;-59
2020/12/07 09:03:43;;;;;;;90.27;56.30;;;;;;;;;;4456076;32;20284;-59
2020/12/07 09:06:12;;;;;;;88.40;59.23;;;;;;;;;;4465291;32;20216;-59
2020/12/07 09:08:39;;;;;;;88.03;59.53;;;;;;;;;;4462749;32;20280;-59
2020/12/07 09:11:06;;;;;;;93.47;59.27;;;;;;;;;;4449998;32;20205;-59
2020/12/07 09:13:32;;;;;;;91.83;57.00;;;;;;;;;;4449409;32;20258;-59
2020/12/07 09:15:58;;;;;;;104.17;65.27;;;;;;;;;;4448962;32;20342;-59
2020/12/07 09:18:24;;;;;;;121.47;74.63;;;;;;;;;;4463839;32;20354;-59
2020/12/07 09:20:49;;;;;;;131.73;81.47;;;;;;;;;;4449719;32;20374;-58
2020/12/07 09:23:16;;;;;;;130.47;83.03;;;;;;;;;;4449215;32;20291;-59
2020/12/07 09:25:41;;;;;;;136.57;84.93;;;;;;;;;;4455755;32;20208;-59
2020/12/07 09:28:08;;;;;;;138.20;88.03;;;;;;;;;;4464335;32;20625;-59
2020/12/07 09:30:33;;;;;;;132.67;87.93;;;;;;;;;;4450669;32;20299;-59
2020/12/07 09:32:59;;;;;;;148.47;88.30;;;;;;;;;;4464740;32;20220;-59
2020/12/07 09:35:25;;;;;;;145.00;90.87;;;;;;;;;;4463749;32;20575;-59
2020/12/07 09:37:50;;;;;;;148.23;97.33;;;;;;;;;;4464125;32;20723;-58
2020/12/07 09:40:16;;;;;;;166.57;107.67;;;;;;;;;;4459210;32;20233;-59
2020/12/07 09:42:41;;;;;;;187.90;112.47;;;;;;;;;;4459327;32;20680;-59
2020/12/07 09:45:08;;;;;;;167.63;100.20;;;;;;;;;;4452776;32;20288;-60
2020/12/07 09:47:34;;;;;;;142.37;81.63;;;;;;;;;;4457906;32;20496;-60
2020/12/07 09:50:01;;;;;;;130.53;76.50;;;;;;;;;;4453364;32;20224;-60
2020/12/07 09:52:26;;;;;;;123.63;77.17;;;;;;;;;;4454245;32;20620;-59
2020/12/07 09:54:51;;;;;;;119.60;67.17;;;;;;;;;;4463102;32;20216;-59
2020/12/07 09:57:17;;;;;;;100.83;64.30;;;;;;;;;;4463402;32;20208;-59
2020/12/07 09:59:45;;;;;;;97.73;65.43;;;;;;;;;;4464044;32;20299;-59
2020/12/07 10:02:10;;;;;;;94.13;62.37;;;;;;;;;;4464569;32;20568;-59
2020/12/07 10:04:37;;;;;;;104.80;66.07;;;;;;;;;;4456628;32;20247;-59
2020/12/07 10:07:02;;;;;;;101.37;63.43;;;;;;;;;;4463865;32;20250;-60
2020/12/07 10:09:28;;;;;;;109.23;64.37;;;;;;;;;;4451216;32;20598;-60
2020/12/07 10:11:53;;;;;;;109.23;73.43;;;;;;;;;;4456556;32;20274;-59
2020/12/07 10:14:19;;;;;;;102.03;63.40;;;;;;;;;;4454012;32;20343;-59
2020/12/07 10:16:44;;;;;;;94.47;61.63;;;;;;;;;;4463777;32;20246;-59
2020/12/07 10:19:11;;;;;;;98.80;63.10;;;;;;;;;;4463774;32;20300;-59
2020/12/07 10:21:37;;;;;;;95.70;63.37;;;;;;;;;;4463700;32;20247;-59
2020/12/07 10:24:03;;;;;;;91.67;64.93;;;;;;;;;;4463826;32;20279;-58
2020/12/07 10:26:28;;;;;;;96.80;66.03;;;;;;;;;;4463579;32;20204;-58
2020/12/07 10:28:55;;;;;;;103.83;64.53;;;;;;;;;;4459753;32;20319;-59
2020/12/07 10:31:21;;;;;;;101.73;67.17;;;;;;;;;;4451717;32;20565;-59
2020/12/07 10:33:48;;;;;;;39.57;23.83;;;;;;;;;;4449544;32;20406;-58
2020/12/07 10:36:16;;;;;;;101.73;65.37;;;;;;;;;;4463335;32;20216;-60
2020/12/07 10:38:41;;;;;;;94.20;62.53;;;;;;;;;;4461078;32;20196;-60
2020/12/07 10:41:07;;;;;;;102.30;67.17;;;;;;;;;;4462752;32;20308;-59
2020/12/07 10:43:32;;;;;;;114.73;75.13;;;;;;;;;;4463144;32;20386;-59
2020/12/07 10:45:58;;;;;;;120.17;72.13;;;;;;;;;;4463576;32;20271;-58
2020/12/07 10:48:23;;;;;;;113.50;75.37;;;;;;;;;;4462709;32;20310;-60
2020/12/07 10:50:49;;;;;;;107.80;69.40;;;;;;;;;;4457368;32;20318;-59
2020/12/07 10:53:14;;;;;;;106.33;65.07;;;;;;;;;;4462903;32;20314;-59
2020/12/07 10:55:40;;;;;;;102.17;60.77;;;;;;;;;;4463270;32;20220;-59
2020/12/07 10:58:06;;;;;;;90.53;59.97;;;;;;;;;;4462820;32;20606;-59
2020/12/07 11:00:31;;;;;;;92.13;61.17;;;;;;;;;;4448066;32;20296;-59
2020/12/07 11:02:57;;;;;;;99.10;62.70;;;;;;;;;;4455665;32;20228;-58
2020/12/07 11:05:22;;;;;;;160.07;96.23;;;;;;;;;;4449979;32;20221;-59
2020/12/07 11:07:51;;;;;;;113.00;72.57;;;;;;;;;;4447380;32;20268;-60
2020/12/07 11:10:16;;;;;;;103.00;65.57;;;;;;;;;;4458853;32;20291;-59
2020/12/07 11:12:44;;;;;;;103.47;64.97;;;;;;;;;;4463645;32;20341;-59
2020/12/07 11:15:10;;;;;;;95.63;59.80;;;;;;;;;;4451128;32;20241;-60
2020/12/07 11:17:35;;;;;;;86.23;56.77;;;;;;;;;;4450911;32;20312;-60
2020/12/07 11:20:00;;;;;;;75.10;49.40;;;;;;;;;;4451915;32;20224;-59
2020/12/07 11:22:26;;;;;;;82.10;54.57;;;;;;;;;;4447124;32;20261;-59
2020/12/07 11:24:51;;;;;;;75.23;48.43;;;;;;;;;;4448070;32;20314;-60
2020/12/07 11:27:17;;;;;;;72.00;48.33;;;;;;;;;;4447221;32;20200;-60
2020/12/07 11:29:42;;;;;;;57.63;39.03;;;;;;;;;;4460793;32;20241;-60
2020/12/07 11:32:07;;;;;;;61.40;37.43;;;;;;;;;;4461214;32;20634;-59
2020/12/07 11:34:33;;;;;;;65.17;43.93;;;;;;;;;;4457814;32;20358;-59
2020/12/07 11:36:58;;;;;;;72.70;46.57;;;;;;;;;;4450931;32;20691;-60
2020/12/07 11:39:36;;;;;;;75.40;50.27;;;;;;;;;;4452447;32;20291;-60
2020/12/07 11:44:28;;;;;;;66.73;44.73;;;;;;;;;;4453282;32;20237;-61
2020/12/07 11:46:57;;;;;;;71.13;45.40;;;;;;;;;;4445428;32;20668;-60
2020/12/07 11:49:23;;;;;;;72.60;45.73;;;;;;;;;;4445332;32;20231;-60
2020/12/07 11:51:48;;;;;;;66.13;46.63;;;;;;;;;;4450366;32;20283;-60
2020/12/07 11:54:14;;;;;;;70.93;46.73;;;;;;;;;;4452857;32;20224;-59
2020/12/07 11:56:40;;;;;;;65.87;46.17;;;;;;;;;;4447468;32;20212;-61
2020/12/07 11:59:07;;;;;;;64.63;40.27;;;;;;;;;;4447073;32;20254;-60
2020/12/07 12:01:33;;;;;;;60.83;39.83;;;;;;;;;;4447457;32;20283;-61
2020/12/07 12:04:03;;;;;;;63.80;42.13;;;;;;;;;;4447461;32;20232;-60
2020/12/07 12:06:31;;;;;;;56.23;38.47;;;;;;;;;;4447213;32;20242;-60
2020/12/07 12:08:58;;;;;;;61.37;39.67;;;;;;;;;;4449316;32;20259;-61
2020/12/07 12:11:28;;;;;;;53.53;37.63;;;;;;;;;;4462909;32;20283;-60
2020/12/07 12:13:54;;;;;;;52.37;35.97;;;;;;;;;;4462364;32;20326;-60
2020/12/07 12:16:19;;;;;;;56.67;38.97;;;;;;;;;;4456377;32;21549;-60
2020/12/07 12:18:45;;;;;;;52.93;38.33;;;;;;;;;;4427776;32;20239;-60
2020/12/07 12:21:10;;;;;;;56.00;37.37;;;;;;;;;;4430670;32;20725;-60
2020/12/07 12:23:36;;;;;;;53.17;35.40;;;;;;;;;;4439456;32;20630;-60
2020/12/07 12:26:01;;;;;;;48.77;35.13;;;;;;;;;;4442555;32;20240;-61
2020/12/07 12:28:27;;;;;;;68.50;41.37;;;;;;;;;;4446789;32;20325;-61
2020/12/07 12:30:53;;;;;;;89.27;55.43;;;;;;;;;;4454537;32;20450;-61
2020/12/07 12:33:18;;;;;;;83.67;52.13;;;;;;;;;;4455108;32;20311;-61
2020/12/07 12:35:45;;;;;;;78.17;49.90;;;;;;;;;;4454058;32;20640;-60
2020/12/07 12:38:10;;;;;;;81.60;52.83;;;;;;;;;;4442049;32;20353;-60
2020/12/07 12:40:36;;;;;;;74.40;46.40;;;;;;;;;;4458959;32;20640;-60
2020/12/07 12:43:01;;;;;;;71.53;45.43;;;;;;;;;;4449610;32;20217;-61
2020/12/07 12:45:27;;;;;;;59.57;38.20;;;;;;;;;;4456820;32;20318;-61
2020/12/07 12:47:52;;;;;;;73.67;46.97;;;;;;;;;;4459489;32;20322;-60
2020/12/07 12:50:18;;;;;;;85.90;58.17;;;;;;;;;;4457485;32;21210;-60
2020/12/07 12:52:44;;;;;;;89.63;59.10;;;;;;;;;;4462324;32;20347;-58
2020/12/07 12:55:11;;;;;;;95.37;62.50;;;;;;;;;;4456778;32;20682;-59
2020/12/07 12:57:37;;;;;;;94.73;65.70;;;;;;;;;;4437137;32;20236;-58
2020/12/07 13:00:05;;;;;;;100.20;63.83;;;;;;;;;;4440950;32;20378;-60
2020/12/07 13:02:30;;;;;;;96.70;62.97;;;;;;;;;;4452683;32;20228;-59
2020/12/07 13:04:56;;;;;;;104.30;65.60;;;;;;;;;;4454125;32;20251;-59
2020/12/07 13:07:21;;;;;;;104.47;68.40;;;;;;;;;;4452328;32;20275;-59
2020/12/07 13:09:47;;;;;;;138.27;80.33;;;;;;;;;;4446600;32;20346;-60
2020/12/07 13:12:12;;;;;;;157.63;87.00;;;;;;;;;;4455696;32;20223;-59
2020/12/07 13:14:38;;;;;;;123.77;73.30;;;;;;;;;;4450644;32;20375;-59
2020/12/07 13:17:09;;;;;;;87.57;61.23;;;;;;;;;;4453028;32;20672;-59
2020/12/07 13:19:35;;;;;;;75.63;54.00;;;;;;;;;;4448366;32;20327;-59
2020/12/07 13:22:14;;;;;;;119.97;69.37;;;;;;;;;;4457397;32;20231;-59
2020/12/07 13:24:58;;;;;;;159.77;81.90;;;;;;;;;;4449216;32;21876;-60
2020/12/07 13:29:53;;;;;;;110.50;69.77;;;;;;;;;;4452630;32;20281;-60
2020/12/07 13:32:18;;;;;;;151.33;81.17;;;;;;;;;;4451567;32;20252;-59
2020/12/07 13:34:44;;;;;;;140.00;82.10;;;;;;;;;;4445770;32;20263;-60
2020/12/07 13:37:09;;;;;;;124.40;78.97;;;;;;;;;;4448212;32;20575;-59
2020/12/07 13:39:34;;;;;;;123.83;80.87;;;;;;;;;;4455175;32;20310;-60
2020/12/07 13:42:00;;;;;;;128.13;82.97;;;;;;;;;;4448177;32;20250;-60
2020/12/07 13:44:25;;;;;;;176.27;109.30;;;;;;;;;;4450355;32;20328;-60
2020/12/07 13:46:55;;;;;;;192.07;113.50;;;;;;;;;;4445781;32;20216;-60
2020/12/07 13:49:20;;;;;;;191.00;122.07;;;;;;;;;;4456105;32;20255;-60
2020/12/07 13:51:46;;;;;;;180.30;120.20;;;;;;;;;;4454341;32;20693;-60
2020/12/07 13:54:11;;;;;;;156.77;104.63;;;;;;;;;;4457062;32;21855;-59
2020/12/07 13:56:41;;;;;;;144.67;96.00;;;;;;;;;;4459064;32;20207;-60
2020/12/07 13:59:06;;;;;;;188.50;119.47;;;;;;;;;;4458743;32;20224;-60
2020/12/07 14:01:32;;;;;;;187.07;108.90;;;;;;;;;;4456237;32;20246;-60
2020/12/07 14:04:01;;;;;;;174.03;111.80;;;;;;;;;;4452121;32;20255;-59
2020/12/07 14:06:27;;;;;;;126.47;87.27;;;;;;;;;;4461342;32;20251;-60
2020/12/07 14:08:54;;;;;;;126.03;82.33;;;;;;;;;;4458692;32;20616;-60
2020/12/07 14:11:21;;;;;;;129.93;81.87;;;;;;;;;;4462934;32;20228;-60
2020/12/07 14:13:46;;;;;;;117.07;77.67;;;;;;;;;;4456959;32;20725;-60
2020/12/07 14:16:16;;;;;;;93.17;65.57;;;;;;;;;;4462805;32;20319;-59
2020/12/07 14:18:56;;;;;;;93.33;66.57;;;;;;;;;;4457330;32;20385;-60
2020/12/07 14:35:13;;;;;;;226.53;146.20;;;;;;;;;;4454442;32;20217;-60
2020/12/07 14:40:08;;;;;;;78.97;55.77;;;;;;;;;;4461869;32;20272;-61
2020/12/07 14:42:35;;;;;;;61.00;47.30;;;;;;;;;;4461866;32;20290;-61
2020/12/07 14:45:02;;;;;;;68.83;47.27;;;;;;;;;;4457326;32;20236;-61
2020/12/07 14:47:28;;;;;;;72.43;50.67;;;;;;;;;;4452596;32;20246;-61
2020/12/07 14:50:00;;;;;;;58.90;42.60;;;;;;;;;;4459475;32;20307;-61
2020/12/07 14:52:28;;;;;;;64.43;46.33;;;;;;;;;;4451836;32;20216;-62
2020/12/07 14:55:02;;;;;;;62.10;42.80;;;;;;;;;;4458339;32;20287;-62
2020/12/07 14:58:08;;;;;;;50.77;36.83;;;;;;;;;;4447175;32;20224;-61
2020/12/07 15:05:29;;;;;;;51.40;38.83;;;;;;;;;;4450441;32;20250;-61
2020/12/07 15:15:40;;;;;;;64.67;43.77;;;;;;;;;;4461641;32;20624;-62
2020/12/07 15:18:06;;;;;;;61.00;43.57;;;;;;;;;;4458779;32;20267;-62
2020/12/07 15:20:31;;;;;;;69.00;44.53;;;;;;;;;;4462598;32;20397;-63